sensor_id;sensor_type;location;lat;lon;timestamp;temperature;humidity
4701;DHT22;8724;51.272;6.554;2023-04-25T00:00:48;11.00;99.90
4701;DHT22;8724;51.272;6.554;2023-04-25T00:03:18;11.00;99.90
4701;DHT22;8724;51.272;6.554;2023-04-25T00:05:46;11.00;99.90
4701;DHT22;8724;51.272;6.554;2023-04-25T00:08:15;11.00;99.90
4701;DHT22;8724;51.272;6.554;2023-04-25T00:10:44;11.00;99.90
4701;DHT22;8724;51.272;6.554;2023-04-25T00:13:12;11.00;99.90
4701;DHT22;8724;51.272;6.554;2023-04-25T00:15:41;11.20;99.90
4701;DHT22;8724;51.272;6.554;2023-04-25T00:18:10;11.00;99.90
4701;DHT22;8724;51.272;6.554;2023-04-25T00:20:39;11.00;99.90
4701;DHT22;8724;51.272;6.554;2023-04-25T00:23:11;11.00;99.90
4701;DHT22;8724;51.272;6.554;2023-04-25T00:25:39;11.00;99.90
4701;DHT22;8724;51.272;6.554;2023-04-25T00:28:08;11.00;99.90
4701;DHT22;8724;51.272;6.554;2023-04-25T00:30:36;11.00;99.90
4701;DHT22;8724;51.272;6.554;2023-04-25T00:33:04;11.00;99.90
4701;DHT22;8724;51.272;6.554;2023-04-25T00:35:33;11.00;99.90
4701;DHT22;8724;51.272;6.554;2023-04-25T00:38:02;11.00;99.90
4701;DHT22;8724;51.272;6.554;2023-04-25T00:40:31;10.90;99.90
4701;DHT22;8724;51.272;6.554;2023-04-25T00:42:59;10.90;99.90
4701;DHT22;8724;51.272;6.554;2023-04-25T00:45:28;10.80;99.90
4701;DHT22;8724;51.272;6.554;2023-04-25T00:47:57;10.80;99.90
4701;DHT22;8724;51.272;6.554;2023-04-25T00:50:25;11.10;99.90
4701;DHT22;8724;51.272;6.554;2023-04-25T00:52:54;10.70;99.90
4701;DHT22;8724;51.272;6.554;2023-04-25T00:55:24;10.70;99.90
4701;DHT22;8724;51.272;6.554;2023-04-25T00:57:52;10.70;99.90
4701;DHT22;8724;51.272;6.554;2023-04-25T01:00:21;10.60;99.90
4701;DHT22;8724;51.272;6.554;2023-04-25T01:02:49;10.70;99.90
4701;DHT22;8724;51.272;6.554;2023-04-25T01:05:18;10.80;99.90
4701;DHT22;8724;51.272;6.554;2023-04-25T01:07:46;11.00;99.90
4701;DHT22;8724;51.272;6.554;2023-04-25T01:10:15;11.10;99.90
4701;DHT22;8724;51.272;6.554;2023-04-25T01:12:45;11.00;99.90
4701;DHT22;8724;51.272;6.554;2023-04-25T01:15:13;10.70;99.90
4701;DHT22;8724;51.272;6.554;2023-04-25T01:17:41;10.70;99.90
4701;DHT22;8724;51.272;6.554;2023-04-25T01:20:11;10.60;99.90
4701;DHT22;8724;51.272;6.554;2023-04-25T01:22:41;10.70;99.90
4701;DHT22;8724;51.272;6.554;2023-04-25T01:25:10;10.70;99.90
4701;DHT22;8724;51.272;6.554;2023-04-25T01:27:38;10.60;99.90
4701;DHT22;8724;51.272;6.554;2023-04-25T01:30:08;10.50;99.90
4701;DHT22;8724;51.272;6.554;2023-04-25T01:32:37;10.50;99.90
4701;DHT22;8724;51.272;6.554;2023-04-25T01:35:07;10.40;99.90
4701;DHT22;8724;51.272;6.554;2023-04-25T01:37:36;10.40;99.90
4701;DHT22;8724;51.272;6.554;2023-04-25T01:40:07;10.40;99.90
4701;DHT22;8724;51.272;6.554;2023-04-25T01:42:38;10.30;99.90
4701;DHT22;8724;51.272;6.554;2023-04-25T01:45:08;10.30;99.90
4701;DHT22;8724;51.272;6.554;2023-04-25T01:47:37;10.30;99.90
4701;DHT22;8724;51.272;6.554;2023-04-25T01:50:08;10.30;99.90
4701;DHT22;8724;51.272;6.554;2023-04-25T01:52:37;10.30;99.90
4701;DHT22;8724;51.272;6.554;2023-04-25T01:55:09;10.30;99.90
4701;DHT22;8724;51.272;6.554;2023-04-25T01:57:42;10.30;99.90
4701;DHT22;8724;51.272;6.554;2023-04-25T02:00:11;10.30;99.90
4701;DHT22;8724;51.272;6.554;2023-04-25T02:02:40;10.30;99.90
4701;DHT22;8724;51.272;6.554;2023-04-25T02:05:26;10.30;99.90
4701;DHT22;8724;51.272;6.554;2023-04-25T02:07:54;10.40;99.90
4701;DHT22;8724;51.272;6.554;2023-04-25T02:10:26;10.40;99.90
4701;DHT22;8724;51.272;6.554;2023-04-25T02:13:06;10.40;99.90
4701;DHT22;8724;51.272;6.554;2023-04-25T02:16:01;10.40;99.90
4701;DHT22;8724;51.272;6.554;2023-04-25T02:18:30;10.40;99.90
4701;DHT22;8724;51.272;6.554;2023-04-25T02:21:00;10.40;99.90
4701;DHT22;8724;51.272;6.554;2023-04-25T02:23:29;10.60;99.90
4701;DHT22;8724;51.272;6.554;2023-04-25T02:26:00;10.30;99.90
4701;DHT22;8724;51.272;6.554;2023-04-25T02:28:29;10.60;99.90
4701;DHT22;8724;51.272;6.554;2023-04-25T02:30:58;10.30;99.90
4701;DHT22;8724;51.272;6.554;2023-04-25T02:33:26;10.20;99.90
4701;DHT22;8724;51.272;6.554;2023-04-25T02:35:54;10.20;99.90
4701;DHT22;8724;51.272;6.554;2023-04-25T02:38:23;10.40;99.90
4701;DHT22;8724;51.272;6.554;2023-04-25T02:40:51;10.20;99.90
4701;DHT22;8724;51.272;6.554;2023-04-25T02:43:21;10.20;99.90
4701;DHT22;8724;51.272;6.554;2023-04-25T02:45:51;10.20;99.90
4701;DHT22;8724;51.272;6.554;2023-04-25T02:48:20;10.10;99.90
4701;DHT22;8724;51.272;6.554;2023-04-25T02:50:48;10.10;99.90
4701;DHT22;8724;51.272;6.554;2023-04-25T02:53:16;10.20;99.90
4701;DHT22;8724;51.272;6.554;2023-04-25T02:55:48;10.10;99.90
4701;DHT22;8724;51.272;6.554;2023-04-25T02:58:17;10.20;99.90
4701;DHT22;8724;51.272;6.554;2023-04-25T03:00:50;10.10;99.90
4701;DHT22;8724;51.272;6.554;2023-04-25T03:03:18;10.10;99.90
4701;DHT22;8724;51.272;6.554;2023-04-25T03:05:49;10.10;99.90
4701;DHT22;8724;51.272;6.554;2023-04-25T03:08:25;10.10;99.90
4701;DHT22;8724;51.272;6.554;2023-04-25T03:10:58;10.50;99.90
4701;DHT22;8724;51.272;6.554;2023-04-25T03:13:27;10.10;99.90
4701;DHT22;8724;51.272;6.554;2023-04-25T03:15:59;10.00;99.90
4701;DHT22;8724;51.272;6.554;2023-04-25T03:18:27;10.00;99.90
4701;DHT22;8724;51.272;6.554;2023-04-25T03:20:55;10.00;99.90
4701;DHT22;8724;51.272;6.554;2023-04-25T03:23:24;10.00;99.90
4701;DHT22;8724;51.272;6.554;2023-04-25T03:25:53;10.00;99.90
4701;DHT22;8724;51.272;6.554;2023-04-25T03:28:22;10.00;99.90
4701;DHT22;8724;51.272;6.554;2023-04-25T03:30:50;10.00;99.90
4701;DHT22;8724;51.272;6.554;2023-04-25T03:33:20;10.00;99.90
4701;DHT22;8724;51.272;6.554;2023-04-25T03:35:48;10.00;99.90
4701;DHT22;8724;51.272;6.554;2023-04-25T03:38:18;9.90;99.90
4701;DHT22;8724;51.272;6.554;2023-04-25T03:40:46;9.90;99.90
4701;DHT22;8724;51.272;6.554;2023-04-25T03:43:26;9.90;99.90
4701;DHT22;8724;51.272;6.554;2023-04-25T03:46:00;9.90;99.90
4701;DHT22;8724;51.272;6.554;2023-04-25T03:48:30;9.80;99.90
4701;DHT22;8724;51.272;6.554;2023-04-25T03:50:58;9.80;99.90
4701;DHT22;8724;51.272;6.554;2023-04-25T03:53:27;9.80;99.90
4701;DHT22;8724;51.272;6.554;2023-04-25T03:56:25;9.80;99.90
4701;DHT22;8724;51.272;6.554;2023-04-25T03:59:00;9.80;99.90
4701;DHT22;8724;51.272;6.554;2023-04-25T04:01:30;9.80;99.90
4701;DHT22;8724;51.272;6.554;2023-04-25T04:04:00;9.80;99.90
4701;DHT22;8724;51.272;6.554;2023-04-25T04:06:29;9.80;99.90
4701;DHT22;8724;51.272;6.554;2023-04-25T04:09:07;9.80;99.90
4701;DHT22;8724;51.272;6.554;2023-04-25T04:11:39;9.80;99.90
4701;DHT22;8724;51.272;6.554;2023-04-25T04:14:08;9.80;99.90
4701;DHT22;8724;51.272;6.554;2023-04-25T04:16:40;9.80;99.90
4701;DHT22;8724;51.272;6.554;2023-04-25T04:19:10;9.80;99.90
4701;DHT22;8724;51.272;6.554;2023-04-25T04:21:43;9.80;99.90
4701;DHT22;8724;51.272;6.554;2023-04-25T04:24:11;10.10;99.90
4701;DHT22;8724;51.272;6.554;2023-04-25T04:26:49;9.80;99.90
4701;DHT22;8724;51.272;6.554;2023-04-25T04:29:50;9.80;99.90
4701;DHT22;8724;51.272;6.554;2023-04-25T04:32:31;9.80;99.90
4701;DHT22;8724;51.272;6.554;2023-04-25T04:35:05;9.80;99.90
4701;DHT22;8724;51.272;6.554;2023-04-25T04:37:34;9.80;99.90
4701;DHT22;8724;51.272;6.554;2023-04-25T04:40:05;9.80;99.90
4701;DHT22;8724;51.272;6.554;2023-04-25T04:42:44;9.80;99.90
4701;DHT22;8724;51.272;6.554;2023-04-25T04:45:33;9.80;99.90
4701;DHT22;8724;51.272;6.554;2023-04-25T04:48:18;9.80;99.90
4701;DHT22;8724;51.272;6.554;2023-04-25T04:51:06;9.80;99.90
4701;DHT22;8724;51.272;6.554;2023-04-25T04:53:52;9.80;99.90
4701;DHT22;8724;51.272;6.554;2023-04-25T04:56:43;9.80;99.90
4701;DHT22;8724;51.272;6.554;2023-04-25T04:59:24;9.70;99.90
4701;DHT22;8724;51.272;6.554;2023-04-25T05:01:58;9.70;99.90
4701;DHT22;8724;51.272;6.554;2023-04-25T05:04:43;9.70;99.90
4701;DHT22;8724;51.272;6.554;2023-04-25T05:07:32;9.70;99.90
4701;DHT22;8724;51.272;6.554;2023-04-25T05:10:20;9.70;99.90
4701;DHT22;8724;51.272;6.554;2023-04-25T05:13:18;9.70;99.90
4701;DHT22;8724;51.272;6.554;2023-04-25T05:16:12;9.70;99.90
4701;DHT22;8724;51.272;6.554;2023-04-25T05:18:49;9.70;99.90
4701;DHT22;8724;51.272;6.554;2023-04-25T05:21:32;9.80;99.90
4701;DHT22;8724;51.272;6.554;2023-04-25T05:24:02;9.80;99.90
4701;DHT22;8724;51.272;6.554;2023-04-25T05:26:49;9.80;99.90
4701;DHT22;8724;51.272;6.554;2023-04-25T05:29:44;9.80;99.90
4701;DHT22;8724;51.272;6.554;2023-04-25T05:32:35;9.80;99.90
4701;DHT22;8724;51.272;6.554;2023-04-25T05:35:04;9.80;99.90
4701;DHT22;8724;51.272;6.554;2023-04-25T05:37:41;9.80;99.90
4701;DHT22;8724;51.272;6.554;2023-04-25T05:40:13;9.80;99.90
4701;DHT22;8724;51.272;6.554;2023-04-25T05:42:44;9.70;99.90
4701;DHT22;8724;51.272;6.554;2023-04-25T05:45:31;9.70;99.90
4701;DHT22;8724;51.272;6.554;2023-04-25T05:48:17;9.60;99.90
4701;DHT22;8724;51.272;6.554;2023-04-25T05:51:24;9.70;99.90
4701;DHT22;8724;51.272;6.554;2023-04-25T05:54:11;9.70;99.90
4701;DHT22;8724;51.272;6.554;2023-04-25T05:56:41;9.70;99.90
4701;DHT22;8724;51.272;6.554;2023-04-25T05:59:09;9.70;99.90
4701;DHT22;8724;51.272;6.554;2023-04-25T06:01:38;9.80;99.90
4701;DHT22;8724;51.272;6.554;2023-04-25T06:04:07;9.80;99.90
4701;DHT22;8724;51.272;6.554;2023-04-25T06:06:36;9.80;99.90
4701;DHT22;8724;51.272;6.554;2023-04-25T06:09:04;9.80;99.90
4701;DHT22;8724;51.272;6.554;2023-04-25T06:11:32;9.90;99.90
4701;DHT22;8724;51.272;6.554;2023-04-25T06:14:02;9.80;99.90
4701;DHT22;8724;51.272;6.554;2023-04-25T06:16:33;9.80;99.90
4701;DHT22;8724;51.272;6.554;2023-04-25T06:19:01;9.80;99.90
4701;DHT22;8724;51.272;6.554;2023-04-25T06:21:30;9.80;99.90
4701;DHT22;8724;51.272;6.554;2023-04-25T06:23:59;9.80;99.90
4701;DHT22;8724;51.272;6.554;2023-04-25T06:26:28;9.70;99.90
4701;DHT22;8724;51.272;6.554;2023-04-25T06:28:56;9.80;99.90
4701;DHT22;8724;51.272;6.554;2023-04-25T06:31:26;9.80;99.90
4701;DHT22;8724;51.272;6.554;2023-04-25T06:33:56;9.80;99.90
4701;DHT22;8724;51.272;6.554;2023-04-25T06:36:26;9.80;99.90
4701;DHT22;8724;51.272;6.554;2023-04-25T06:39:00;9.80;99.90
4701;DHT22;8724;51.272;6.554;2023-04-25T06:41:29;9.80;99.90
4701;DHT22;8724;51.272;6.554;2023-04-25T06:44:01;9.80;99.90
4701;DHT22;8724;51.272;6.554;2023-04-25T06:46:36;9.70;99.90
4701;DHT22;8724;51.272;6.554;2023-04-25T06:49:04;9.70;99.90
4701;DHT22;8724;51.272;6.554;2023-04-25T06:51:33;9.70;99.90
4701;DHT22;8724;51.272;6.554;2023-04-25T06:54:02;9.80;99.90
4701;DHT22;8724;51.272;6.554;2023-04-25T06:56:39;10.00;99.90
4701;DHT22;8724;51.272;6.554;2023-04-25T06:59:12;9.70;99.90
4701;DHT22;8724;51.272;6.554;2023-04-25T07:01:43;9.70;99.90
4701;DHT22;8724;51.272;6.554;2023-04-25T07:04:18;10.00;99.90
4701;DHT22;8724;51.272;6.554;2023-04-25T07:06:57;9.70;99.90
4701;DHT22;8724;51.272;6.554;2023-04-25T07:09:41;9.80;99.90
4701;DHT22;8724;51.272;6.554;2023-04-25T07:12:10;9.90;99.90
4701;DHT22;8724;51.272;6.554;2023-04-25T07:14:38;9.70;99.90
4701;DHT22;8724;51.272;6.554;2023-04-25T07:17:10;9.80;99.90
4701;DHT22;8724;51.272;6.554;2023-04-25T07:19:38;9.70;99.90
4701;DHT22;8724;51.272;6.554;2023-04-25T07:22:08;9.80;99.90
4701;DHT22;8724;51.272;6.554;2023-04-25T07:24:39;9.80;99.90
4701;DHT22;8724;51.272;6.554;2023-04-25T07:27:11;9.80;99.90
4701;DHT22;8724;51.272;6.554;2023-04-25T07:30:03;9.90;99.90
4701;DHT22;8724;51.272;6.554;2023-04-25T07:32:33;9.90;99.90
4701;DHT22;8724;51.272;6.554;2023-04-25T07:35:02;9.90;99.90
4701;DHT22;8724;51.272;6.554;2023-04-25T07:37:30;10.00;99.90
4701;DHT22;8724;51.272;6.554;2023-04-25T07:40:19;10.00;99.90
4701;DHT22;8724;51.272;6.554;2023-04-25T07:42:52;10.10;99.90
4701;DHT22;8724;51.272;6.554;2023-04-25T07:45:31;10.00;99.90
4701;DHT22;8724;51.272;6.554;2023-04-25T07:48:01;9.90;99.90
4701;DHT22;8724;51.272;6.554;2023-04-25T07:50:32;9.90;99.90
4701;DHT22;8724;51.272;6.554;2023-04-25T07:53:01;9.90;99.90
4701;DHT22;8724;51.272;6.554;2023-04-25T07:55:39;10.10;99.90
4701;DHT22;8724;51.272;6.554;2023-04-25T07:58:13;9.90;99.90
4701;DHT22;8724;51.272;6.554;2023-04-25T08:00:44;9.90;99.90
4701;DHT22;8724;51.272;6.554;2023-04-25T08:03:40;9.90;99.90
4701;DHT22;8724;51.272;6.554;2023-04-25T08:06:15;10.00;99.90
4701;DHT22;8724;51.272;6.554;2023-04-25T08:08:54;9.90;99.90
4701;DHT22;8724;51.272;6.554;2023-04-25T08:11:29;9.90;99.90
4701;DHT22;8724;51.272;6.554;2023-04-25T08:13:57;9.90;99.90
4701;DHT22;8724;51.272;6.554;2023-04-25T08:16:26;10.00;99.90
4701;DHT22;8724;51.272;6.554;2023-04-25T08:18:58;10.00;99.90
4701;DHT22;8724;51.272;6.554;2023-04-25T08:21:27;10.00;99.90
4701;DHT22;8724;51.272;6.554;2023-04-25T08:23:58;10.00;99.90
4701;DHT22;8724;51.272;6.554;2023-04-25T08:26:35;10.00;99.90
4701;DHT22;8724;51.272;6.554;2023-04-25T08:29:05;10.00;99.90
4701;DHT22;8724;51.272;6.554;2023-04-25T08:31:37;10.00;99.90
4701;DHT22;8724;51.272;6.554;2023-04-25T08:34:08;10.00;99.90
4701;DHT22;8724;51.272;6.554;2023-04-25T08:36:42;10.10;99.90
4701;DHT22;8724;51.272;6.554;2023-04-25T08:39:39;10.10;99.90
4701;DHT22;8724;51.272;6.554;2023-04-25T08:42:28;10.20;99.90
4701;DHT22;8724;51.272;6.554;2023-04-25T08:44:59;10.20;99.90
4701;DHT22;8724;51.272;6.554;2023-04-25T08:47:37;10.20;99.90
4701;DHT22;8724;51.272;6.554;2023-04-25T08:50:08;10.30;99.90
4701;DHT22;8724;51.272;6.554;2023-04-25T08:53:04;10.20;99.90
4701;DHT22;8724;51.272;6.554;2023-04-25T08:55:37;10.20;99.90
4701;DHT22;8724;51.272;6.554;2023-04-25T08:58:10;10.20;99.90
4701;DHT22;8724;51.272;6.554;2023-04-25T09:00:39;10.20;99.90
4701;DHT22;8724;51.272;6.554;2023-04-25T09:03:10;10.20;99.90
4701;DHT22;8724;51.272;6.554;2023-04-25T09:05:41;10.20;99.90
4701;DHT22;8724;51.272;6.554;2023-04-25T09:08:16;10.30;99.90
4701;DHT22;8724;51.272;6.554;2023-04-25T09:10:45;10.30;99.90
4701;DHT22;8724;51.272;6.554;2023-04-25T09:13:17;10.40;99.90
4701;DHT22;8724;51.272;6.554;2023-04-25T09:16:14;10.40;99.90
4701;DHT22;8724;51.272;6.554;2023-04-25T09:19:01;10.40;99.90
4701;DHT22;8724;51.272;6.554;2023-04-25T09:21:32;10.40;99.90
4701;DHT22;8724;51.272;6.554;2023-04-25T09:24:04;10.30;99.90
4701;DHT22;8724;51.272;6.554;2023-04-25T09:26:35;10.30;99.90
4701;DHT22;8724;51.272;6.554;2023-04-25T09:29:05;10.30;99.90
4701;DHT22;8724;51.272;6.554;2023-04-25T09:31:38;10.30;99.90
4701;DHT22;8724;51.272;6.554;2023-04-25T09:34:08;10.40;99.90
4701;DHT22;8724;51.272;6.554;2023-04-25T09:36:47;10.40;99.90
4701;DHT22;8724;51.272;6.554;2023-04-25T09:39:30;10.40;99.90
4701;DHT22;8724;51.272;6.554;2023-04-25T09:42:11;10.50;99.90
4701;DHT22;8724;51.272;6.554;2023-04-25T09:44:42;10.50;99.90
4701;DHT22;8724;51.272;6.554;2023-04-25T09:47:13;10.50;99.90
4701;DHT22;8724;51.272;6.554;2023-04-25T09:49:42;10.50;99.90
4701;DHT22;8724;51.272;6.554;2023-04-25T09:52:14;10.50;99.90
4701;DHT22;8724;51.272;6.554;2023-04-25T09:55:23;10.50;99.90
4701;DHT22;8724;51.272;6.554;2023-04-25T09:57:53;10.50;99.90
4701;DHT22;8724;51.272;6.554;2023-04-25T10:00:22;10.50;99.90
4701;DHT22;8724;51.272;6.554;2023-04-25T10:02:52;10.50;99.90
4701;DHT22;8724;51.272;6.554;2023-04-25T10:05:55;10.60;99.90
4701;DHT22;8724;51.272;6.554;2023-04-25T10:08:30;10.60;99.90
4701;DHT22;8724;51.272;6.554;2023-04-25T10:11:03;10.60;99.90
4701;DHT22;8724;51.272;6.554;2023-04-25T10:13:33;10.60;99.90
4701;DHT22;8724;51.272;6.554;2023-04-25T10:16:03;10.60;99.90
4701;DHT22;8724;51.272;6.554;2023-04-25T10:18:32;10.60;99.90
4701;DHT22;8724;51.272;6.554;2023-04-25T10:21:02;10.60;99.90
4701;DHT22;8724;51.272;6.554;2023-04-25T10:23:32;10.60;99.90
4701;DHT22;8724;51.272;6.554;2023-04-25T10:26:02;10.60;99.90
4701;DHT22;8724;51.272;6.554;2023-04-25T10:28:56;10.60;99.90
4701;DHT22;8724;51.272;6.554;2023-04-25T10:31:25;10.60;99.90
4701;DHT22;8724;51.272;6.554;2023-04-25T10:33:54;10.70;99.90
4701;DHT22;8724;51.272;6.554;2023-04-25T10:36:23;10.70;99.90
4701;DHT22;8724;51.272;6.554;2023-04-25T10:38:52;10.70;99.90
4701;DHT22;8724;51.272;6.554;2023-04-25T10:41:22;10.70;99.90
4701;DHT22;8724;51.272;6.554;2023-04-25T10:43:59;10.70;99.90
4701;DHT22;8724;51.272;6.554;2023-04-25T10:46:29;10.80;99.90
4701;DHT22;8724;51.272;6.554;2023-04-25T10:48:59;10.80;99.90
4701;DHT22;8724;51.272;6.554;2023-04-25T10:51:29;10.80;99.90
4701;DHT22;8724;51.272;6.554;2023-04-25T10:54:18;10.80;99.90
4701;DHT22;8724;51.272;6.554;2023-04-25T10:56:49;10.80;99.90
4701;DHT22;8724;51.272;6.554;2023-04-25T10:59:19;10.80;99.90
4701;DHT22;8724;51.272;6.554;2023-04-25T11:01:51;10.80;99.90
4701;DHT22;8724;51.272;6.554;2023-04-25T11:04:20;10.90;99.90
4701;DHT22;8724;51.272;6.554;2023-04-25T11:07:05;10.80;99.90
4701;DHT22;8724;51.272;6.554;2023-04-25T11:09:38;10.80;99.90
4701;DHT22;8724;51.272;6.554;2023-04-25T11:12:10;10.90;99.90
4701;DHT22;8724;51.272;6.554;2023-04-25T11:14:39;10.90;99.90
4701;DHT22;8724;51.272;6.554;2023-04-25T11:17:08;10.90;99.90
4701;DHT22;8724;51.272;6.554;2023-04-25T11:19:37;10.90;99.90
4701;DHT22;8724;51.272;6.554;2023-04-25T11:22:06;10.90;99.90
4701;DHT22;8724;51.272;6.554;2023-04-25T11:24:35;10.90;99.90
4701;DHT22;8724;51.272;6.554;2023-04-25T11:27:06;10.90;99.90
4701;DHT22;8724;51.272;6.554;2023-04-25T11:29:36;10.90;99.90
4701;DHT22;8724;51.272;6.554;2023-04-25T11:32:05;10.90;99.90
4701;DHT22;8724;51.272;6.554;2023-04-25T11:34:34;10.80;99.90
4701;DHT22;8724;51.272;6.554;2023-04-25T11:37:03;10.80;99.90
4701;DHT22;8724;51.272;6.554;2023-04-25T11:39:33;10.80;99.90
4701;DHT22;8724;51.272;6.554;2023-04-25T11:42:01;10.80;99.90
4701;DHT22;8724;51.272;6.554;2023-04-25T11:44:54;10.80;99.90
4701;DHT22;8724;51.272;6.554;2023-04-25T11:47:28;10.80;99.90
4701;DHT22;8724;51.272;6.554;2023-04-25T11:49:58;10.80;99.90
4701;DHT22;8724;51.272;6.554;2023-04-25T11:52:36;10.50;99.90
4701;DHT22;8724;51.272;6.554;2023-04-25T11:55:06;10.70;99.90
4701;DHT22;8724;51.272;6.554;2023-04-25T11:57:38;10.80;99.90
4701;DHT22;8724;51.272;6.554;2023-04-25T12:00:11;11.00;99.90
4701;DHT22;8724;51.272;6.554;2023-04-25T12:02:46;10.80;99.90
4701;DHT22;8724;51.272;6.554;2023-04-25T12:05:15;10.80;99.90
4701;DHT22;8724;51.272;6.554;2023-04-25T12:07:47;10.80;99.90
4701;DHT22;8724;51.272;6.554;2023-04-25T12:10:17;10.80;99.90
4701;DHT22;8724;51.272;6.554;2023-04-25T12:12:46;10.70;99.90
4701;DHT22;8724;51.272;6.554;2023-04-25T12:15:18;10.70;99.90
4701;DHT22;8724;51.272;6.554;2023-04-25T12:17:48;10.70;99.90
4701;DHT22;8724;51.272;6.554;2023-04-25T12:20:19;10.80;99.90
4701;DHT22;8724;51.272;6.554;2023-04-25T12:22:48;10.70;99.90
4701;DHT22;8724;51.272;6.554;2023-04-25T12:25:34;10.70;99.90
4701;DHT22;8724;51.272;6.554;2023-04-25T12:28:10;10.70;99.90
4701;DHT22;8724;51.272;6.554;2023-04-25T12:30:57;10.80;99.90
4701;DHT22;8724;51.272;6.554;2023-04-25T12:33:27;10.80;99.90
4701;DHT22;8724;51.272;6.554;2023-04-25T12:35:55;10.90;99.90
4701;DHT22;8724;51.272;6.554;2023-04-25T12:38:25;10.90;99.90
4701;DHT22;8724;51.272;6.554;2023-04-25T12:40:54;11.00;99.90
4701;DHT22;8724;51.272;6.554;2023-04-25T12:43:23;11.00;99.90
4701;DHT22;8724;51.272;6.554;2023-04-25T12:45:53;11.10;99.90
4701;DHT22;8724;51.272;6.554;2023-04-25T12:48:23;11.40;99.90
4701;DHT22;8724;51.272;6.554;2023-04-25T12:50:52;11.20;99.90
4701;DHT22;8724;51.272;6.554;2023-04-25T12:53:22;11.20;99.90
4701;DHT22;8724;51.272;6.554;2023-04-25T12:55:51;11.20;99.90
4701;DHT22;8724;51.272;6.554;2023-04-25T12:58:24;11.10;99.90
4701;DHT22;8724;51.272;6.554;2023-04-25T13:00:52;11.00;99.90
4701;DHT22;8724;51.272;6.554;2023-04-25T13:03:22;10.90;99.90
4701;DHT22;8724;51.272;6.554;2023-04-25T13:05:51;10.90;99.90
4701;DHT22;8724;51.272;6.554;2023-04-25T13:08:19;10.90;99.90
4701;DHT22;8724;51.272;6.554;2023-04-25T13:10:48;10.90;99.90
4701;DHT22;8724;51.272;6.554;2023-04-25T13:13:16;10.90;99.90
4701;DHT22;8724;51.272;6.554;2023-04-25T13:15:45;10.90;99.90
4701;DHT22;8724;51.272;6.554;2023-04-25T13:18:14;10.90;99.90
4701;DHT22;8724;51.272;6.554;2023-04-25T13:20:44;10.90;99.90
4701;DHT22;8724;51.272;6.554;2023-04-25T13:23:13;10.90;99.90
4701;DHT22;8724;51.272;6.554;2023-04-25T13:25:41;10.90;99.90
4701;DHT22;8724;51.272;6.554;2023-04-25T13:28:09;10.80;99.90
4701;DHT22;8724;51.272;6.554;2023-04-25T13:30:38;10.80;99.90
4701;DHT22;8724;51.272;6.554;2023-04-25T13:33:06;10.70;99.90
4701;DHT22;8724;51.272;6.554;2023-04-25T13:35:35;10.80;99.90
4701;DHT22;8724;51.272;6.554;2023-04-25T13:38:05;10.80;99.90
4701;DHT22;8724;51.272;6.554;2023-04-25T13:40:34;10.80;99.90
4701;DHT22;8724;51.272;6.554;2023-04-25T13:43:02;10.80;99.90
4701;DHT22;8724;51.272;6.554;2023-04-25T13:45:31;11.20;99.90
4701;DHT22;8724;51.272;6.554;2023-04-25T13:47:59;10.90;99.90
4701;DHT22;8724;51.272;6.554;2023-04-25T13:50:28;10.90;99.90
4701;DHT22;8724;51.272;6.554;2023-04-25T13:52:57;10.90;99.90
4701;DHT22;8724;51.272;6.554;2023-04-25T13:55:27;10.90;99.90
4701;DHT22;8724;51.272;6.554;2023-04-25T13:57:55;11.00;99.90
4701;DHT22;8724;51.272;6.554;2023-04-25T14:00:24;11.00;99.90
4701;DHT22;8724;51.272;6.554;2023-04-25T14:02:52;11.00;99.90
4701;DHT22;8724;51.272;6.554;2023-04-25T14:05:21;11.10;99.90
4701;DHT22;8724;51.272;6.554;2023-04-25T14:07:49;11.10;99.90
4701;DHT22;8724;51.272;6.554;2023-04-25T14:10:18;11.20;99.90
4701;DHT22;8724;51.272;6.554;2023-04-25T14:12:48;11.10;99.90
4701;DHT22;8724;51.272;6.554;2023-04-25T14:15:16;11.10;99.90
4701;DHT22;8724;51.272;6.554;2023-04-25T14:17:44;11.20;99.90
4701;DHT22;8724;51.272;6.554;2023-04-25T14:20:13;11.20;99.90
4701;DHT22;8724;51.272;6.554;2023-04-25T14:22:41;11.20;99.90
4701;DHT22;8724;51.272;6.554;2023-04-25T14:25:10;11.20;99.90
4701;DHT22;8724;51.272;6.554;2023-04-25T14:27:39;11.20;99.90
4701;DHT22;8724;51.272;6.554;2023-04-25T14:30:09;11.30;99.90
4701;DHT22;8724;51.272;6.554;2023-04-25T14:32:38;11.30;99.90
4701;DHT22;8724;51.272;6.554;2023-04-25T14:35:08;11.30;99.90
4701;DHT22;8724;51.272;6.554;2023-04-25T14:37:37;11.30;99.90
4701;DHT22;8724;51.272;6.554;2023-04-25T14:40:07;11.30;99.90
4701;DHT22;8724;51.272;6.554;2023-04-25T14:42:37;11.30;99.90
4701;DHT22;8724;51.272;6.554;2023-04-25T14:45:08;11.30;99.90
4701;DHT22;8724;51.272;6.554;2023-04-25T14:47:37;11.40;99.90
4701;DHT22;8724;51.272;6.554;2023-04-25T14:50:07;11.40;99.90
4701;DHT22;8724;51.272;6.554;2023-04-25T14:52:35;11.50;99.90
4701;DHT22;8724;51.272;6.554;2023-04-25T14:55:04;11.50;99.90
4701;DHT22;8724;51.272;6.554;2023-04-25T14:57:33;11.50;99.90
4701;DHT22;8724;51.272;6.554;2023-04-25T15:00:04;11.60;99.90
4701;DHT22;8724;51.272;6.554;2023-04-25T15:02:37;11.60;99.90
4701;DHT22;8724;51.272;6.554;2023-04-25T15:05:06;11.70;99.90
4701;DHT22;8724;51.272;6.554;2023-04-25T15:07:35;11.70;99.90
4701;DHT22;8724;51.272;6.554;2023-04-25T15:10:04;11.70;99.90
4701;DHT22;8724;51.272;6.554;2023-04-25T15:12:33;11.70;99.90
4701;DHT22;8724;51.272;6.554;2023-04-25T15:15:01;11.70;99.90
4701;DHT22;8724;51.272;6.554;2023-04-25T15:17:30;11.70;99.90
4701;DHT22;8724;51.272;6.554;2023-04-25T15:20:00;11.70;99.90
4701;DHT22;8724;51.272;6.554;2023-04-25T15:22:28;11.70;99.90
4701;DHT22;8724;51.272;6.554;2023-04-25T15:24:56;11.70;99.90
4701;DHT22;8724;51.272;6.554;2023-04-25T15:27:25;11.60;99.90
4701;DHT22;8724;51.272;6.554;2023-04-25T15:29:54;11.70;99.90
4701;DHT22;8724;51.272;6.554;2023-04-25T15:32:22;11.70;99.90
4701;DHT22;8724;51.272;6.554;2023-04-25T15:34:51;11.80;99.90
4701;DHT22;8724;51.272;6.554;2023-04-25T15:37:21;11.80;99.90
4701;DHT22;8724;51.272;6.554;2023-04-25T15:40:00;11.80;99.90
4701;DHT22;8724;51.272;6.554;2023-04-25T15:42:30;11.80;99.90
4701;DHT22;8724;51.272;6.554;2023-04-25T15:44:59;11.80;99.90
4701;DHT22;8724;51.272;6.554;2023-04-25T15:47:27;11.80;99.90
4701;DHT22;8724;51.272;6.554;2023-04-25T15:49:55;11.80;99.90
4701;DHT22;8724;51.272;6.554;2023-04-25T15:52:26;11.90;99.90
4701;DHT22;8724;51.272;6.554;2023-04-25T15:54:54;11.90;99.90
4701;DHT22;8724;51.272;6.554;2023-04-25T15:57:23;12.00;99.90
4701;DHT22;8724;51.272;6.554;2023-04-25T15:59:51;12.00;99.90
4701;DHT22;8724;51.272;6.554;2023-04-25T16:02:20;12.10;99.90
4701;DHT22;8724;51.272;6.554;2023-04-25T16:04:48;12.20;99.90
4701;DHT22;8724;51.272;6.554;2023-04-25T16:07:17;12.30;99.90
4701;DHT22;8724;51.272;6.554;2023-04-25T16:09:47;12.30;99.90
4701;DHT22;8724;51.272;6.554;2023-04-25T16:12:15;12.30;99.90
4701;DHT22;8724;51.272;6.554;2023-04-25T16:14:44;12.20;99.90
4701;DHT22;8724;51.272;6.554;2023-04-25T16:17:12;12.20;99.90
4701;DHT22;8724;51.272;6.554;2023-04-25T16:19:40;12.10;99.90
4701;DHT22;8724;51.272;6.554;2023-04-25T16:22:09;12.10;99.90
4701;DHT22;8724;51.272;6.554;2023-04-25T16:24:39;12.10;99.90
4701;DHT22;8724;51.272;6.554;2023-04-25T16:27:08;12.10;99.90
4701;DHT22;8724;51.272;6.554;2023-04-25T16:29:37;12.10;99.90
4701;DHT22;8724;51.272;6.554;2023-04-25T16:32:05;12.00;99.90
4701;DHT22;8724;51.272;6.554;2023-04-25T16:34:34;12.10;99.90
4701;DHT22;8724;51.272;6.554;2023-04-25T16:37:02;12.10;99.90